createdAt,value
2019-06-08T00:01:53.966Z,91.77
2019-06-08T00:04:22.959Z,92.20
2019-06-08T00:06:51.820Z,91.59
2019-06-08T00:09:21.927Z,90.61
2019-06-08T00:11:50.915Z,90.86
2019-06-08T00:14:19.572Z,90.77
2019-06-08T00:16:48.236Z,90.24
2019-06-08T00:19:17.378Z,90.13
2019-06-08T00:21:46.253Z,90.19
2019-06-08T00:24:15.726Z,89.65
2019-06-08T00:26:44.444Z,89.57
2019-06-08T00:29:14.155Z,89.44
2019-06-08T00:31:42.766Z,89.12
2019-06-08T00:34:11.376Z,88.78
2019-06-08T00:36:40.010Z,88.47
2019-06-08T00:39:09.765Z,87.51
2019-06-08T00:41:38.590Z,86.84
2019-06-08T00:44:07.193Z,86.87
2019-06-08T00:46:35.870Z,87.90
2019-06-08T00:49:04.564Z,87.71
2019-06-08T00:51:33.281Z,87.23
2019-06-08T00:54:02.014Z,86.57
2019-06-08T00:56:30.738Z,86.14
2019-06-08T00:58:59.366Z,86.89
2019-06-08T01:01:28.310Z,87.66
2019-06-08T01:03:56.899Z,87.64
2019-06-08T01:06:25.538Z,87.40
2019-06-08T01:08:54.151Z,87.29
2019-06-08T01:11:22.781Z,85.94
2019-06-08T01:13:51.471Z,85.81
2019-06-08T01:16:20.967Z,87.20
2019-06-08T01:18:49.839Z,86.67
2019-06-08T01:21:19.435Z,86.80
2019-06-08T01:23:48.172Z,86.13
2019-06-08T01:26:16.800Z,86.66
2019-06-08T01:28:45.461Z,86.10
2019-06-08T01:31:14.154Z,86.12
2019-06-08T01:33:42.838Z,86.85
2019-06-08T01:36:11.707Z,86.22
2019-06-08T01:38:40.498Z,86.20
2019-06-08T01:41:09.194Z,85.15
2019-06-08T01:43:37.845Z,85.76
2019-06-08T01:46:06.471Z,85.90
2019-06-08T01:48:35.089Z,85.75
2019-06-08T01:51:03.872Z,85.75
2019-06-08T01:53:33.028Z,86.17
2019-06-08T01:56:01.632Z,86.22
2019-06-08T01:58:31.437Z,85.46
2019-06-08T02:01:00.181Z,85.10
2019-06-08T02:03:30.054Z,84.61
2019-06-08T02:05:58.871Z,85.47
2019-06-08T02:08:28.603Z,84.26
2019-06-08T02:10:57.328Z,83.16
2019-06-08T02:13:26.871Z,82.04
2019-06-08T02:15:55.492Z,81.83
2019-06-08T02:18:36.337Z,81.21
2019-06-08T02:20:54.503Z,81.07
2019-06-08T02:23:23.220Z,80.84
2019-06-08T02:25:51.833Z,80.58
2019-06-08T02:28:20.532Z,79.93
2019-06-08T02:30:49.156Z,77.47
2019-06-08T02:33:17.796Z,75.78
2019-06-08T02:35:46.651Z,75.57
2019-06-08T02:38:15.380Z,74.75
2019-06-08T02:40:44.184Z,73.78
2019-06-08T02:43:13.154Z,74.86
2019-06-08T02:45:41.773Z,75.05
2019-06-08T02:48:10.470Z,74.30
2019-06-08T02:50:56.173Z,74.07
2019-06-08T02:53:26.345Z,73.92
2019-06-08T02:55:55.699Z,72.66
2019-06-08T02:58:25.075Z,73.34
2019-06-08T03:00:55.090Z,72.48
2019-06-08T03:03:23.784Z,72.44
2019-06-08T03:05:52.594Z,72.17
2019-06-08T03:08:21.839Z,73.43
2019-06-08T03:10:54.521Z,72.24
2019-06-08T03:13:24.203Z,72.92
2019-06-08T03:15:53.464Z,73.56
2019-06-08T03:18:22.068Z,74.46
2019-06-08T03:20:50.781Z,74.62
2019-06-08T03:23:19.467Z,74.85
2019-06-08T03:25:52.898Z,73.63
2019-06-08T03:28:18.536Z,74.24
2019-06-08T03:30:53.810Z,74.46
2019-06-08T03:33:17.536Z,73.14
2019-06-08T03:35:56.047Z,73.65
2019-06-08T03:38:16.589Z,73.18
2019-06-08T03:40:45.411Z,74.66
2019-06-08T03:43:14.094Z,73.57
2019-06-08T03:45:43.596Z,72.56
2019-06-08T03:48:13.096Z,72.65
2019-06-08T03:50:43.926Z,72.96
2019-06-08T03:53:12.349Z,72.96
2019-06-08T03:55:43.054Z,72.75
2019-06-08T03:58:11.717Z,72.27
2019-06-08T04:00:40.566Z,72.58
2019-06-08T04:03:09.335Z,73.30
2019-06-08T04:05:40.233Z,73.11
2019-06-08T04:08:08.500Z,72.50
2019-06-08T04:10:37.594Z,71.80
2019-06-08T04:13:10.995Z,71.05
2019-06-08T04:15:37.961Z,71.75
2019-06-08T04:18:07.276Z,71.00
2019-06-08T04:20:35.887Z,69.53
2019-06-08T04:23:04.622Z,70.12
2019-06-08T04:25:33.353Z,69.53
2019-06-08T04:28:02.066Z,68.46
2019-06-08T04:30:30.740Z,69.42
2019-06-08T04:32:59.350Z,69.35
2019-06-08T04:35:28.159Z,69.07
2019-06-08T04:37:56.773Z,69.17
2019-06-08T04:40:25.393Z,68.99
2019-06-08T04:42:54.019Z,67.37
2019-06-08T04:45:22.787Z,66.20
2019-06-08T04:47:51.486Z,67.48
2019-06-08T04:50:23.318Z,66.07
2019-06-08T04:52:50.571Z,65.72
2019-06-08T04:55:19.205Z,66.10
2019-06-08T04:57:48.786Z,64.88
2019-06-08T05:00:18.477Z,66.33
2019-06-08T05:02:49.313Z,65.47
2019-06-08T05:05:17.454Z,65.08
2019-06-08T05:07:48.082Z,64.02
2019-06-08T05:10:16.560Z,64.83
2019-06-08T05:12:45.670Z,64.71
2019-06-08T05:15:16.044Z,64.62
2019-06-08T05:17:45.384Z,64.82
2019-06-08T05:20:15.916Z,64.30
2019-06-08T05:22:45.548Z,65.14
2019-06-08T05:25:14.484Z,65.58
2019-06-08T05:27:43.404Z,66.76
2019-06-08T05:30:12.974Z,65.38
2019-06-08T05:32:41.623Z,63.93
2019-06-08T05:35:10.822Z,64.83
2019-06-08T05:37:39.539Z,63.46
2019-06-08T05:40:08.472Z,64.63
2019-06-08T05:42:37.155Z,63.49
2019-06-08T05:45:06.312Z,62.86
2019-06-08T05:47:35.006Z,62.28
2019-06-08T05:50:03.839Z,61.03
2019-06-08T05:52:32.445Z,61.25
2019-06-08T05:55:01.080Z,60.00
2019-06-08T05:57:29.702Z,58.27
2019-06-08T05:59:58.349Z,58.02
2019-06-08T06:02:27.007Z,59.14
2019-06-08T06:04:55.770Z,58.97
2019-06-08T06:07:24.415Z,59.85
2019-06-08T06:09:53.067Z,61.06
2019-06-08T06:12:21.727Z,61.57
2019-06-08T06:14:51.246Z,61.71
2019-06-08T06:17:20.000Z,61.63
2019-06-08T06:19:49.249Z,62.49
2019-06-08T06:22:18.098Z,63.21
2019-06-08T06:24:47.617Z,61.84
2019-06-08T06:27:16.571Z,62.19
2019-06-08T06:29:45.526Z,62.69
2019-06-08T06:32:14.261Z,61.76
2019-06-08T06:34:43.910Z,59.86
2019-06-08T06:37:12.756Z,60.63
2019-06-08T06:39:41.901Z,61.89
2019-06-08T06:42:10.642Z,62.43
2019-06-08T06:44:39.626Z,62.31
2019-06-08T06:47:08.323Z,62.25
2019-06-08T06:49:37.025Z,62.67
2019-06-08T06:52:05.719Z,62.17
2019-06-08T06:54:34.339Z,61.04
2019-06-08T06:57:03.001Z,60.75
2019-06-08T06:59:31.588Z,59.07
2019-06-08T07:02:00.343Z,60.58
2019-06-08T07:04:29.034Z,59.75
2019-06-08T07:06:57.071Z,59.11
2019-06-08T07:09:25.794Z,59.67
2019-06-08T07:11:56.285Z,60.67
2019-06-08T07:14:24.903Z,59.84
2019-06-08T07:16:54.066Z,59.85
2019-06-08T07:19:22.844Z,61.55
2019-06-08T07:21:53.060Z,60.81
2019-06-08T07:24:22.131Z,60.74
2019-06-08T07:26:50.740Z,60.42
2019-06-08T07:29:19.395Z,60.31
2019-06-08T07:31:49.935Z,60.39
2019-06-08T07:34:18.781Z,61.36
2019-06-08T07:36:48.467Z,60.67
2019-06-08T07:39:17.813Z,60.50
2019-06-08T07:41:47.399Z,60.79
2019-06-08T07:44:17.092Z,60.88
2019-06-08T07:46:46.980Z,60.88
2019-06-08T07:49:15.789Z,62.60
2019-06-08T07:51:57.770Z,61.62
2019-06-08T07:54:14.974Z,61.09
2019-06-08T07:56:43.626Z,60.36
2019-06-08T07:59:12.263Z,61.19
2019-06-08T08:01:40.887Z,60.31
2019-06-08T08:04:09.659Z,59.92
2019-06-08T08:06:38.345Z,59.79
2019-06-08T08:09:07.868Z,59.51
2019-06-08T08:11:36.586Z,59.34
2019-06-08T08:14:05.388Z,59.45
2019-06-08T08:16:34.084Z,60.17
2019-06-08T08:19:02.838Z,58.74
2019-06-08T08:21:31.541Z,58.16
2019-06-08T08:24:01.597Z,59.20
2019-06-08T08:26:34.234Z,59.88
2019-06-08T08:29:03.064Z,59.62
2019-06-08T08:31:31.341Z,60.11
2019-06-08T08:34:05.730Z,59.54
2019-06-08T08:36:33.291Z,58.82
2019-06-08T08:39:02.441Z,59.70
2019-06-08T08:41:31.352Z,59.14
2019-06-08T08:44:02.819Z,57.96
2019-06-08T08:46:30.302Z,58.44
2019-06-08T08:49:07.342Z,57.44
2019-06-08T08:51:29.443Z,57.76
2019-06-08T08:54:03.168Z,59.14
2019-06-08T08:56:28.674Z,58.41
2019-06-08T08:59:00.961Z,58.40
2019-06-08T09:01:28.782Z,55.91
2019-06-08T09:04:02.907Z,55.98
2019-06-08T09:06:28.214Z,56.50
2019-06-08T09:09:00.870Z,55.35
2019-06-08T09:11:28.897Z,54.12
2019-06-08T09:14:03.751Z,56.11
2019-06-08T09:16:28.770Z,57.10
2019-06-08T09:19:01.024Z,56.41
2019-06-08T09:21:28.279Z,56.90
2019-06-08T09:24:00.511Z,56.38
2019-06-08T09:26:28.782Z,57.81
2019-06-08T09:28:58.407Z,54.96
2019-06-08T09:31:28.168Z,56.34
2019-06-08T09:34:08.620Z,56.34
2019-06-08T09:36:28.721Z,54.82
2019-06-08T09:39:00.960Z,54.82
2019-06-08T09:41:31.179Z,54.91
2019-06-08T09:44:02.358Z,54.59
2019-06-08T09:46:28.803Z,56.59
2019-06-08T09:49:02.819Z,55.02
2019-06-08T09:51:28.638Z,54.40
2019-06-08T09:54:00.819Z,54.18
2019-06-08T09:56:28.402Z,52.00
2019-06-08T09:59:01.322Z,51.59
2019-06-08T10:01:28.630Z,52.49
2019-06-08T10:04:00.623Z,52.49
2019-06-08T10:06:27.980Z,53.71
2019-06-08T10:08:56.638Z,53.71
2019-06-08T10:11:27.916Z,53.89
2019-06-08T10:13:59.460Z,53.71
2019-06-08T10:16:27.918Z,52.53
2019-06-08T10:18:57.657Z,51.28
2019-06-08T10:21:28.388Z,51.28
2019-06-08T10:24:00.575Z,51.92
2019-06-08T10:26:28.118Z,52.20
2019-06-08T10:29:00.280Z,52.33
2019-06-08T10:31:36.528Z,52.47
2019-06-08T10:34:01.564Z,52.47
2019-06-08T10:36:28.596Z,53.92
2019-06-08T10:39:01.807Z,54.22
2019-06-08T10:41:28.020Z,52.49
2019-06-08T10:43:57.184Z,53.00
2019-06-08T10:46:25.971Z,52.77
2019-06-08T10:48:54.646Z,54.16
2019-06-08T10:51:23.224Z,54.54
2019-06-08T10:53:53.318Z,52.28
2019-06-08T10:56:22.350Z,54.58
2019-06-08T10:58:50.989Z,51.32
2019-06-08T11:01:19.800Z,53.05
2019-06-08T11:03:49.057Z,53.05
2019-06-08T11:06:18.840Z,50.79
2019-06-08T11:08:47.733Z,50.79
2019-06-08T11:11:19.457Z,52.74
2019-06-08T11:13:50.031Z,52.74
2019-06-08T11:16:18.113Z,53.15
2019-06-08T11:18:50.635Z,52.49
2019-06-08T11:21:18.756Z,51.71
2019-06-08T11:24:04.762Z,54.10
2019-06-08T11:26:23.866Z,54.41
2019-06-08T11:28:51.205Z,52.51
2019-06-08T11:31:19.846Z,50.33
2019-06-08T11:33:49.094Z,49.87
2019-06-08T11:36:18.842Z,51.99
2019-06-08T11:38:48.094Z,51.99
2019-06-08T11:41:18.969Z,51.42
2019-06-08T11:43:47.173Z,53.59
2019-06-08T11:46:19.011Z,51.10
2019-06-08T11:48:48.365Z,51.10
2019-06-08T11:51:16.726Z,50.80
2019-06-08T11:53:48.235Z,50.80
2019-06-08T11:56:18.260Z,50.65
2019-06-08T11:58:48.599Z,50.65
2019-06-08T12:01:18.477Z,50.69
2019-06-08T12:03:48.338Z,52.40
2019-06-08T12:06:18.591Z,52.15
2019-06-08T12:08:47.465Z,52.15
2019-06-08T12:11:19.774Z,49.76
2019-06-08T12:13:47.424Z,49.76
2019-06-08T12:16:21.411Z,51.38
2019-06-08T12:18:49.219Z,49.29
2019-06-08T12:21:18.594Z,49.43
2019-06-08T12:23:47.355Z,48.06
2019-06-08T12:26:16.043Z,49.13
2019-06-08T12:28:44.775Z,50.41
2019-06-08T12:31:17.701Z,50.41
2019-06-08T12:33:43.922Z,47.48
2019-06-08T12:36:15.358Z,47.48
2019-06-08T12:38:42.879Z,49.06
2019-06-08T12:41:12.721Z,48.95
2019-06-08T12:43:41.998Z,46.95
2019-06-08T12:46:11.701Z,46.95
2019-06-08T12:48:41.000Z,48.84
2019-06-08T12:51:11.545Z,47.08
2019-06-08T12:53:40.028Z,47.66
2019-06-08T12:56:11.829Z,45.70
2019-06-08T12:58:40.569Z,46.71
2019-06-08T13:01:10.804Z,46.99
2019-06-08T13:03:39.924Z,47.85
2019-06-08T13:06:09.629Z,47.62
2019-06-08T13:08:38.936Z,47.62
2019-06-08T13:11:09.344Z,47.61
2019-06-08T13:13:38.040Z,47.60
2019-06-08T13:16:08.514Z,47.43
2019-06-08T13:18:40.273Z,45.25
2019-06-08T13:21:21.848Z,45.25
2019-06-08T13:23:41.082Z,47.56
2019-06-08T13:26:09.004Z,47.56
2019-06-08T13:28:38.533Z,47.10
2019-06-08T13:31:07.872Z,47.10
2019-06-08T13:33:38.280Z,47.48
2019-06-08T13:36:07.254Z,47.48
2019-06-08T13:38:37.954Z,46.99
2019-06-08T13:41:08.614Z,46.69
2019-06-08T14:13:43.258Z,46.08
2019-06-08T14:16:11.890Z,47.08
2019-06-08T14:18:40.559Z,47.08
2019-06-08T14:21:09.195Z,47.65
2019-06-08T14:23:41.081Z,47.10
2019-06-08T14:26:08.451Z,47.10
2019-06-08T14:28:38.080Z,47.36
2019-06-08T14:31:08.364Z,46.00
2019-06-08T14:33:38.129Z,45.50
2019-06-08T14:36:07.929Z,45.76
2019-06-08T14:38:41.057Z,46.18
2019-06-08T14:41:07.693Z,46.57
2019-06-08T14:43:38.158Z,46.93
2019-06-08T14:46:08.137Z,47.41
2019-06-08T14:48:37.957Z,47.41
2019-06-08T14:51:08.720Z,47.40
2019-06-08T14:53:38.734Z,47.47
2019-06-08T14:56:08.902Z,46.28
2019-06-08T14:58:38.568Z,43.78
2019-06-08T15:01:08.010Z,45.98
2019-06-08T15:03:37.865Z,45.98
2019-06-08T15:06:08.004Z,45.23
2019-06-08T15:08:37.089Z,44.83
2019-06-08T15:11:07.925Z,44.33
2019-06-08T15:13:37.591Z,45.62
2019-06-08T15:16:08.106Z,45.08
2019-06-08T15:18:38.542Z,45.04
2019-06-08T15:21:07.921Z,43.96
2019-06-08T15:23:36.714Z,44.98
2019-06-08T15:26:17.579Z,45.56
2019-06-08T15:28:36.478Z,45.56
2019-06-08T15:31:08.157Z,47.04
2019-06-08T15:33:38.196Z,45.54
2019-06-08T15:36:08.349Z,45.33
2019-06-08T15:38:38.046Z,44.50
2019-06-08T15:41:07.805Z,44.99
2019-06-08T15:43:39.973Z,45.03
2019-06-08T15:46:08.682Z,45.39
2019-06-08T15:48:38.149Z,44.23
2019-06-08T15:51:07.892Z,43.02
2019-06-08T15:53:37.823Z,42.76
2019-06-08T15:56:08.428Z,43.76
2019-06-08T15:58:40.185Z,44.35
2019-06-08T16:01:07.756Z,43.66
2019-06-08T16:03:36.437Z,43.66
2019-06-08T16:06:05.319Z,45.68
2019-06-08T16:08:37.553Z,45.68
2019-06-08T16:11:07.462Z,43.83
2019-06-08T16:13:36.083Z,43.45
2019-06-08T16:16:04.989Z,43.47
2019-06-08T16:18:33.654Z,43.90
2019-06-08T16:21:02.295Z,44.87
2019-06-08T16:23:31.842Z,44.87
2019-06-08T16:26:00.789Z,44.56
2019-06-08T16:28:29.946Z,44.77
2019-06-08T16:30:58.744Z,44.48
2019-06-08T16:33:27.419Z,44.62
2019-06-08T16:35:56.133Z,45.43
2019-06-08T16:38:24.733Z,44.04
2019-06-08T16:40:53.473Z,44.73
2019-06-08T16:43:22.156Z,44.73
2019-06-08T16:45:50.827Z,44.63
2019-06-08T16:48:19.443Z,45.75
2019-06-08T16:50:48.186Z,45.75
2019-06-08T16:53:16.881Z,45.37
2019-06-08T16:55:45.599Z,44.10
2019-06-08T16:58:14.224Z,44.10
2019-06-08T17:00:42.923Z,44.77
2019-06-08T17:03:11.569Z,44.02
2019-06-08T17:05:41.527Z,41.20
2019-06-08T17:08:10.854Z,39.93
2019-06-08T17:10:41.000Z,41.85
2019-06-08T17:13:11.595Z,43.45
2019-06-08T17:15:40.471Z,40.66
2019-06-08T17:18:09.255Z,40.66
2019-06-08T17:20:38.411Z,40.35
2019-06-08T17:23:07.344Z,41.71
2019-06-08T17:25:36.616Z,41.32
2019-06-08T17:28:05.611Z,41.32
2019-06-08T17:30:35.744Z,43.50
2019-06-08T17:33:04.823Z,43.50
2019-06-08T17:35:33.887Z,43.63
2019-06-08T17:38:02.609Z,42.58
2019-06-08T17:40:31.976Z,41.85
2019-06-08T17:43:00.914Z,41.11
2019-06-08T17:45:29.749Z,40.71
2019-06-08T17:47:58.386Z,39.48
2019-06-08T17:50:27.251Z,41.00
2019-06-08T17:52:55.979Z,41.83
2019-06-08T17:55:24.747Z,41.87
2019-06-08T17:57:53.902Z,43.15
2019-06-08T18:00:22.780Z,43.68
2019-06-08T18:02:51.512Z,44.56
2019-06-08T18:05:20.240Z,44.56
2019-06-08T18:07:49.175Z,46.34
2019-06-08T18:10:18.140Z,47.25
2019-06-08T18:12:49.300Z,47.25
2019-06-08T18:15:17.682Z,46.03
2019-06-08T18:17:48.227Z,45.06
2019-06-08T18:20:17.833Z,45.80
2019-06-08T18:22:49.314Z,46.46
2019-06-08T18:25:17.785Z,47.45
2019-06-08T18:28:02.681Z,47.86
2019-06-08T18:30:18.949Z,47.86
2019-06-08T18:32:48.689Z,47.08
2019-06-08T18:35:18.272Z,47.99
2019-06-08T18:37:48.701Z,47.63
2019-06-08T18:40:18.232Z,47.85
2019-06-08T18:42:48.745Z,48.76
2019-06-08T18:45:18.348Z,48.54
2019-06-08T18:47:48.388Z,48.50
2019-06-08T18:50:17.907Z,48.50
2019-06-08T18:52:49.452Z,48.51
2019-06-08T18:55:18.274Z,48.51
2019-06-08T18:57:48.954Z,48.51
2019-06-08T19:00:18.615Z,49.47
2019-06-08T19:02:53.601Z,49.47
2019-06-08T19:05:21.096Z,48.62
2019-06-08T19:07:51.575Z,49.41
2019-06-08T19:10:30.789Z,49.28
2019-06-08T19:12:59.671Z,50.35
2019-06-08T19:15:41.846Z,50.77
2019-06-08T19:18:09.086Z,50.70
2019-06-08T19:20:42.857Z,51.26
2019-06-08T19:23:09.291Z,51.26
2019-06-08T19:25:41.221Z,51.88
2019-06-08T19:28:08.926Z,51.75
2019-06-08T19:30:40.365Z,52.26
2019-06-08T19:33:08.598Z,51.64
2019-06-08T19:35:37.675Z,51.64
2019-06-08T19:38:08.000Z,52.46
2019-06-08T19:40:37.888Z,53.42
2019-06-08T19:43:07.665Z,53.42
2019-06-08T19:45:39.128Z,52.76
2019-06-08T19:48:08.254Z,53.47
2019-06-08T19:50:38.605Z,53.79
2019-06-08T19:53:07.862Z,53.39
2019-06-08T19:55:36.850Z,54.01
2019-06-08T19:58:08.569Z,54.63
2019-06-08T20:00:39.286Z,54.66
2019-06-08T20:03:07.787Z,54.65
2019-06-08T20:05:37.910Z,55.91
2019-06-08T20:08:09.107Z,55.91
2019-06-08T20:10:37.841Z,56.30
2019-06-08T20:13:07.848Z,56.30
2019-06-08T20:15:43.515Z,57.01
2019-06-08T20:18:07.398Z,57.12
2019-06-08T20:20:38.030Z,58.13
2019-06-08T20:23:09.489Z,58.06
2019-06-08T20:25:38.195Z,58.94
2019-06-08T20:28:07.979Z,58.94
2019-06-08T20:30:37.058Z,59.28
2019-06-08T20:33:08.121Z,60.72
2019-06-08T20:35:37.551Z,60.72
2019-06-08T20:38:08.274Z,60.30
2019-06-08T20:40:38.360Z,60.50
2019-06-08T20:43:07.373Z,60.63
2019-06-08T20:45:37.523Z,60.70
2019-06-08T20:48:06.548Z,60.68
2019-06-08T20:50:37.623Z,61.68
2019-06-08T20:53:08.479Z,62.28
2019-06-08T20:55:39.993Z,63.07
2019-06-08T20:58:08.060Z,63.17
2019-06-08T21:00:37.798Z,63.23
2019-06-08T21:03:08.151Z,64.47
2019-06-08T21:05:37.191Z,64.39
2019-06-08T21:08:08.387Z,64.39
2019-06-08T21:10:37.815Z,66.07
2019-06-08T21:13:07.362Z,67.21
2019-06-08T21:15:38.211Z,67.40
2019-06-08T21:18:07.882Z,68.53
2019-06-08T21:20:38.109Z,69.25
2019-06-08T21:23:08.164Z,68.46
2019-06-08T21:25:37.383Z,68.08
2019-06-08T21:28:07.845Z,68.16
2019-06-08T21:30:37.781Z,68.91
2019-06-08T21:33:08.346Z,69.02
2019-06-08T21:35:37.351Z,69.04
2019-06-08T21:38:20.200Z,69.90
2019-06-08T21:40:38.373Z,71.69
2019-06-08T21:43:08.131Z,72.03
2019-06-08T21:45:38.082Z,72.08
2019-06-08T21:48:09.659Z,72.40
2019-06-08T21:50:38.429Z,72.60
2019-06-08T21:53:07.851Z,72.08
2019-06-08T21:55:38.080Z,70.99
2019-06-08T21:58:08.061Z,70.88
2019-06-08T22:00:43.024Z,71.58
2019-06-08T22:03:08.267Z,73.33
2019-06-08T22:05:37.694Z,73.98
2019-06-08T22:08:07.993Z,74.39
2019-06-08T22:10:37.687Z,76.02
2019-06-08T22:13:12.282Z,77.19
2019-06-08T22:15:40.268Z,77.23
2019-06-08T22:18:09.237Z,76.59
2019-06-08T22:20:38.485Z,76.55
2019-06-08T22:23:07.490Z,76.57
2019-06-08T22:25:40.337Z,78.03
2019-06-08T22:28:12.129Z,78.35
2019-06-08T22:30:43.066Z,78.24
2019-06-08T22:33:11.410Z,78.68
2019-06-08T22:35:40.278Z,78.42
2019-06-08T22:38:09.154Z,77.99
2019-06-08T22:40:37.955Z,78.29
2019-06-08T22:43:08.022Z,79.17
2019-06-08T22:45:37.527Z,79.03
2019-06-08T22:48:08.154Z,79.49
2019-06-08T22:50:38.185Z,78.91
2019-06-08T22:53:08.058Z,78.49
2019-06-08T22:55:38.267Z,80.19
2019-06-08T22:58:07.689Z,81.30
2019-06-08T23:00:51.839Z,81.27
2019-06-08T23:03:08.626Z,81.34
2019-06-08T23:05:37.565Z,82.69
2019-06-08T23:08:09.135Z,82.91
2019-06-08T23:10:37.411Z,83.08
2019-06-08T23:13:08.282Z,83.25
2019-06-08T23:15:36.588Z,83.61
2019-06-08T23:18:06.597Z,83.61
2019-06-08T23:20:37.137Z,83.23
2019-06-08T23:23:08.651Z,84.45
2019-06-08T23:25:37.316Z,84.94
2019-06-08T23:28:09.548Z,84.25
2019-06-08T23:30:38.303Z,85.30
2019-06-08T23:33:11.540Z,86.22
2019-06-08T23:35:57.111Z,86.80
2019-06-08T23:38:09.317Z,87.89
2019-06-08T23:40:38.381Z,87.99
2019-06-08T23:43:08.261Z,88.26
2019-06-08T23:45:37.938Z,87.44
2019-06-08T23:48:06.842Z,86.82
2019-06-08T23:50:37.791Z,85.92
2019-06-08T23:53:09.124Z,86.39
2019-06-08T23:55:37.238Z,87.05
2019-06-08T23:58:09.473Z,87.35
